sensor_id;sensor_type;location;lat;lon;timestamp;noise_LAeq;noise_LA_min;noise_LA_max;noise_LA01;noise_LA95
78837;Laerm;72468;51.680;5.976;2024-02-14T00:03:41;32.23;31.3;33.37;;
78837;Laerm;72468;51.680;5.976;2024-02-14T00:07:40;32.2;31.47;32.87;;
78837;Laerm;72468;51.680;5.976;2024-02-14T00:11:40;32.17;31.54;32.93;;
78837;Laerm;72468;51.680;5.976;2024-02-14T00:15:40;32.19;31.3;33.29;;
78837;Laerm;72468;51.680;5.976;2024-02-14T00:19:40;32.19;31.53;32.98;;
78837;Laerm;72468;51.680;5.976;2024-02-14T00:23:40;32.2;31.25;33.48;;
78837;Laerm;72468;51.680;5.976;2024-02-14T00:27:40;32.18;31.52;32.9;;
78837;Laerm;72468;51.680;5.976;2024-02-14T00:31:41;32.18;31.47;32.9;;
78837;Laerm;72468;51.680;5.976;2024-02-14T00:35:40;32.18;31.5;32.8;;
78837;Laerm;72468;51.680;5.976;2024-02-14T00:39:40;32.24;31.26;37.11;;
78837;Laerm;72468;51.680;5.976;2024-02-14T00:43:40;32.2;31.44;33.06;;
78837;Laerm;72468;51.680;5.976;2024-02-14T00:47:40;32.21;31.54;32.89;;
78837;Laerm;72468;51.680;5.976;2024-02-14T00:51:40;32.18;31.53;32.79;;
78837;Laerm;72468;51.680;5.976;2024-02-14T00:55:40;32.17;31.26;32.93;;
78837;Laerm;72468;51.680;5.976;2024-02-14T00:59:40;32.19;31.25;33.55;;
78837;Laerm;72468;51.680;5.976;2024-02-14T01:03:40;32.22;31.09;33.38;;
78837;Laerm;72468;51.680;5.976;2024-02-14T01:07:40;32.22;31.22;33.12;;
78837;Laerm;72468;51.680;5.976;2024-02-14T01:11:40;32.21;31.51;33.08;;
78837;Laerm;72468;51.680;5.976;2024-02-14T01:15:40;32.21;31.56;33.48;;
78837;Laerm;72468;51.680;5.976;2024-02-14T01:19:40;32.2;31.37;32.97;;
78837;Laerm;72468;51.680;5.976;2024-02-14T01:23:40;32.2;31.33;33.16;;
78837;Laerm;72468;51.680;5.976;2024-02-14T01:27:40;32.21;31.42;33.36;;
78837;Laerm;72468;51.680;5.976;2024-02-14T01:31:40;32.2;31.31;33.12;;
78837;Laerm;72468;51.680;5.976;2024-02-14T01:35:40;32.21;31.32;33.1;;
78837;Laerm;72468;51.680;5.976;2024-02-14T01:39:40;32.26;31.48;33.17;;
78837;Laerm;72468;51.680;5.976;2024-02-14T01:43:40;32.23;31.56;32.98;;
78837;Laerm;72468;51.680;5.976;2024-02-14T01:47:40;32.22;31.47;32.99;;
78837;Laerm;72468;51.680;5.976;2024-02-14T01:51:40;32.22;31.43;33.03;;
78837;Laerm;72468;51.680;5.976;2024-02-14T01:55:40;32.2;31.48;32.9;;
78837;Laerm;72468;51.680;5.976;2024-02-14T01:59:40;32.21;31.51;32.84;;
78837;Laerm;72468;51.680;5.976;2024-02-14T02:03:40;32.2;31.47;33;;
78837;Laerm;72468;51.680;5.976;2024-02-14T02:07:40;32.19;31.59;32.89;;
78837;Laerm;72468;51.680;5.976;2024-02-14T02:11:42;32.2;31.2;33.07;;
78837;Laerm;72468;51.680;5.976;2024-02-14T02:15:40;32.2;31.29;33.11;;
78837;Laerm;72468;51.680;5.976;2024-02-14T02:19:40;32.19;31.57;32.84;;
78837;Laerm;72468;51.680;5.976;2024-02-14T02:23:40;32.21;31.42;33.7;;
78837;Laerm;72468;51.680;5.976;2024-02-14T02:27:40;32.2;31.48;33.68;;
78837;Laerm;72468;51.680;5.976;2024-02-14T02:31:40;32.21;31.52;32.86;;
78837;Laerm;72468;51.680;5.976;2024-02-14T02:35:41;32.2;31.47;32.79;;
78837;Laerm;72468;51.680;5.976;2024-02-14T02:39:41;32.19;31.21;33.08;;
78837;Laerm;72468;51.680;5.976;2024-02-14T02:43:40;32.2;31.52;32.97;;
78837;Laerm;72468;51.680;5.976;2024-02-14T02:47:40;32.2;31.54;32.85;;
78837;Laerm;72468;51.680;5.976;2024-02-14T02:51:40;32.2;31.42;32.86;;
78837;Laerm;72468;51.680;5.976;2024-02-14T02:55:40;32.2;31.33;32.93;;
78837;Laerm;72468;51.680;5.976;2024-02-14T02:59:40;32.2;31.13;33.01;;
78837;Laerm;72468;51.680;5.976;2024-02-14T03:03:40;32.19;30.58;33.42;;
78837;Laerm;72468;51.680;5.976;2024-02-14T03:07:40;32.2;31.44;33.69;;
78837;Laerm;72468;51.680;5.976;2024-02-14T03:11:40;32.18;31.49;33.04;;
78837;Laerm;72468;51.680;5.976;2024-02-14T03:15:40;32.18;31.59;32.83;;
78837;Laerm;72468;51.680;5.976;2024-02-14T03:19:40;32.19;31.48;32.82;;
78837;Laerm;72468;51.680;5.976;2024-02-14T03:23:40;32.2;31.36;32.79;;
78837;Laerm;72468;51.680;5.976;2024-02-14T03:27:40;32.21;31.6;33.02;;
78837;Laerm;72468;51.680;5.976;2024-02-14T03:31:40;32.2;31.48;33.04;;
78837;Laerm;72468;51.680;5.976;2024-02-14T03:35:40;32.27;31.34;37.08;;
78837;Laerm;72468;51.680;5.976;2024-02-14T03:39:40;32.18;31.33;32.9;;
78837;Laerm;72468;51.680;5.976;2024-02-14T03:43:41;32.17;31.54;32.96;;
78837;Laerm;72468;51.680;5.976;2024-02-14T03:47:40;32.17;31.35;32.94;;
78837;Laerm;72468;51.680;5.976;2024-02-14T03:51:40;32.54;29.49;40.84;;
78837;Laerm;72468;51.680;5.976;2024-02-14T03:55:40;32.29;31.4;38.82;;
78837;Laerm;72468;51.680;5.976;2024-02-14T03:59:40;32.2;31.35;32.98;;
78837;Laerm;72468;51.680;5.976;2024-02-14T04:03:40;32.17;31.52;32.91;;
78837;Laerm;72468;51.680;5.976;2024-02-14T04:07:40;32.16;31.41;32.97;;
78837;Laerm;72468;51.680;5.976;2024-02-14T04:11:40;32.18;31.39;32.92;;
78837;Laerm;72468;51.680;5.976;2024-02-14T04:15:41;32.18;30.86;34.65;;
78837;Laerm;72468;51.680;5.976;2024-02-14T04:19:40;32.27;28.97;38.57;;
78837;Laerm;72468;51.680;5.976;2024-02-14T04:23:40;32.17;31.1;33.98;;
78837;Laerm;72468;51.680;5.976;2024-02-14T04:27:40;32.13;30.55;33.67;;
78837;Laerm;72468;51.680;5.976;2024-02-14T04:31:40;32.43;29.49;39.81;;
78837;Laerm;72468;51.680;5.976;2024-02-14T04:35:40;32.24;30.71;36.12;;
78837;Laerm;72468;51.680;5.976;2024-02-14T04:39:40;32.29;29.41;39.02;;
78837;Laerm;72468;51.680;5.976;2024-02-14T04:43:40;32.31;31.18;36.94;;
78837;Laerm;72468;51.680;5.976;2024-02-14T04:47:40;32.32;30.49;40.11;;
78837;Laerm;72468;51.680;5.976;2024-02-14T04:51:40;32.16;31.27;34.54;;
78837;Laerm;72468;51.680;5.976;2024-02-14T04:55:40;32.22;31.21;37.85;;
78837;Laerm;72468;51.680;5.976;2024-02-14T04:59:40;32.29;29.97;37.03;;
78837;Laerm;72468;51.680;5.976;2024-02-14T05:03:40;32.56;30.54;39.52;;
78837;Laerm;72468;51.680;5.976;2024-02-14T05:07:40;32.27;30.43;36.24;;
78837;Laerm;72468;51.680;5.976;2024-02-14T05:11:40;32.52;30.2;43.84;;
78837;Laerm;72468;51.680;5.976;2024-02-14T05:15:40;32.3;30.76;39.36;;
78837;Laerm;72468;51.680;5.976;2024-02-14T05:19:41;33.22;30.6;44.59;;
78837;Laerm;72468;51.680;5.976;2024-02-14T05:23:40;32.4;30.64;39.53;;
78837;Laerm;72468;51.680;5.976;2024-02-14T05:27:40;32.18;30.56;34.34;;
78837;Laerm;72468;51.680;5.976;2024-02-14T05:31:44;32.44;29.95;39.53;;
78837;Laerm;72468;51.680;5.976;2024-02-14T05:35:40;32.53;30.19;39.61;;
78837;Laerm;72468;51.680;5.976;2024-02-14T05:39:40;32.79;28.88;46.77;;
78837;Laerm;72468;51.680;5.976;2024-02-14T05:43:40;32.31;28.39;38.57;;
78837;Laerm;72468;51.680;5.976;2024-02-14T05:47:40;32.28;30.88;37.49;;
78837;Laerm;72468;51.680;5.976;2024-02-14T05:51:41;32.35;29.73;37.3;;
78837;Laerm;72468;51.680;5.976;2024-02-14T05:55:40;32.64;29.96;41.05;;
78837;Laerm;72468;51.680;5.976;2024-02-14T05:59:40;32.46;30.09;39.72;;
78837;Laerm;72468;51.680;5.976;2024-02-14T06:03:41;32.61;29.39;41.1;;
78837;Laerm;72468;51.680;5.976;2024-02-14T06:07:40;33.35;29.77;49.19;;
78837;Laerm;72468;51.680;5.976;2024-02-14T06:11:40;33.35;30.31;46.17;;
78837;Laerm;72468;51.680;5.976;2024-02-14T06:15:40;32.56;30.92;42.88;;
78837;Laerm;72468;51.680;5.976;2024-02-14T06:19:40;32.99;29.99;40.21;;
78837;Laerm;72468;51.680;5.976;2024-02-14T06:23:40;32.7;29.36;41.23;;
78837;Laerm;72468;51.680;5.976;2024-02-14T06:27:40;33.03;29.89;41.45;;
78837;Laerm;72468;51.680;5.976;2024-02-14T06:31:40;33.28;30.29;44.96;;
78837;Laerm;72468;51.680;5.976;2024-02-14T06:35:40;33.77;29.16;47.79;;
78837;Laerm;72468;51.680;5.976;2024-02-14T06:39:40;33.53;29.72;44.12;;
78837;Laerm;72468;51.680;5.976;2024-02-14T06:43:40;34.13;30.33;49.74;;
78837;Laerm;72468;51.680;5.976;2024-02-14T06:47:40;33.07;29.76;43.09;;
78837;Laerm;72468;51.680;5.976;2024-02-14T06:51:40;33.03;30.45;44.65;;
78837;Laerm;72468;51.680;5.976;2024-02-14T06:55:41;33.91;29.76;44.91;;
78837;Laerm;72468;51.680;5.976;2024-02-14T06:59:41;32.97;30.37;45.65;;
78837;Laerm;72468;51.680;5.976;2024-02-14T07:03:40;32.88;30.09;40.52;;
78837;Laerm;72468;51.680;5.976;2024-02-14T07:07:40;32.9;29.84;40.84;;
78837;Laerm;72468;51.680;5.976;2024-02-14T07:11:40;34.23;29.76;47.55;;
78837;Laerm;72468;51.680;5.976;2024-02-14T07:15:40;32.88;30.63;39.6;;
78837;Laerm;72468;51.680;5.976;2024-02-14T07:19:40;32.8;29.99;42.49;;
78837;Laerm;72468;51.680;5.976;2024-02-14T07:23:40;32.89;29.95;47.74;;
78837;Laerm;72468;51.680;5.976;2024-02-14T07:27:40;33.47;29.24;45.96;;
78837;Laerm;72468;51.680;5.976;2024-02-14T07:31:40;32.73;30.23;39.9;;
78837;Laerm;72468;51.680;5.976;2024-02-14T07:35:40;34.02;30.16;54.51;;
78837;Laerm;72468;51.680;5.976;2024-02-14T07:39:40;32.88;29.51;42.7;;
78837;Laerm;72468;51.680;5.976;2024-02-14T07:43:40;37.13;29.63;54.29;;
78837;Laerm;72468;51.680;5.976;2024-02-14T07:47:40;39.58;30.46;61.51;;
78837;Laerm;72468;51.680;5.976;2024-02-14T07:51:40;32.59;30.24;39.5;;
78837;Laerm;72468;51.680;5.976;2024-02-14T07:55:40;33.23;30.76;47.06;;
78837;Laerm;72468;51.680;5.976;2024-02-14T07:59:41;32.6;29.93;40.98;;
78837;Laerm;72468;51.680;5.976;2024-02-14T08:03:40;33.24;28.96;42.58;;
78837;Laerm;72468;51.680;5.976;2024-02-14T08:07:40;34.08;29.99;51.81;;
78837;Laerm;72468;51.680;5.976;2024-02-14T08:11:40;34.42;29.24;51.49;;
78837;Laerm;72468;51.680;5.976;2024-02-14T08:15:40;33.98;29.79;48.99;;
78837;Laerm;72468;51.680;5.976;2024-02-14T08:19:40;33.49;29.35;44.57;;
78837;Laerm;72468;51.680;5.976;2024-02-14T08:23:40;33.36;29.53;45.09;;
78837;Laerm;72468;51.680;5.976;2024-02-14T08:27:40;33.56;30.64;46.19;;
78837;Laerm;72468;51.680;5.976;2024-02-14T08:31:40;33.34;29.5;43.14;;
78837;Laerm;72468;51.680;5.976;2024-02-14T08:35:40;34.05;29.53;46.62;;
78837;Laerm;72468;51.680;5.976;2024-02-14T08:39:40;33.57;30.61;44.94;;
78837;Laerm;72468;51.680;5.976;2024-02-14T08:43:40;32.69;30.8;40.86;;
78837;Laerm;72468;51.680;5.976;2024-02-14T08:47:43;32.82;30.12;41.85;;
78837;Laerm;72468;51.680;5.976;2024-02-14T08:51:40;32.42;30.26;38.61;;
78837;Laerm;72468;51.680;5.976;2024-02-14T08:55:40;32.32;30.83;37.18;;
78837;Laerm;72468;51.680;5.976;2024-02-14T08:59:40;33.1;29.51;42.38;;
78837;Laerm;72468;51.680;5.976;2024-02-14T09:03:40;33.18;29.76;46.59;;
78837;Laerm;72468;51.680;5.976;2024-02-14T09:07:40;34.47;29.83;46.96;;
78837;Laerm;72468;51.680;5.976;2024-02-14T09:11:40;33.3;29.94;43.44;;
78837;Laerm;72468;51.680;5.976;2024-02-14T09:15:40;39.61;29.88;67.13;;
78837;Laerm;72468;51.680;5.976;2024-02-14T09:19:40;33.58;29.47;46.96;;
78837;Laerm;72468;51.680;5.976;2024-02-14T09:23:43;34.73;29.42;47.63;;
78837;Laerm;72468;51.680;5.976;2024-02-14T09:27:40;34.57;30;47.26;;
78837;Laerm;72468;51.680;5.976;2024-02-14T09:31:40;38.51;30.16;65.66;;
78837;Laerm;72468;51.680;5.976;2024-02-14T09:35:40;33.27;29.59;45.95;;
78837;Laerm;72468;51.680;5.976;2024-02-14T09:39:40;32.71;30.41;46.62;;
78837;Laerm;72468;51.680;5.976;2024-02-14T09:43:42;33.56;30.19;45.34;;
78837;Laerm;72468;51.680;5.976;2024-02-14T09:47:40;33.21;30.39;43.46;;
78837;Laerm;72468;51.680;5.976;2024-02-14T09:51:40;33.2;30.32;48.31;;
78837;Laerm;72468;51.680;5.976;2024-02-14T09:55:40;33.66;29.92;49.89;;
78837;Laerm;72468;51.680;5.976;2024-02-14T09:59:40;33.53;30.38;43.63;;
78837;Laerm;72468;51.680;5.976;2024-02-14T10:03:40;32.78;30.24;41.56;;
78837;Laerm;72468;51.680;5.976;2024-02-14T10:07:40;33.8;29.62;47.38;;
78837;Laerm;72468;51.680;5.976;2024-02-14T10:11:40;33.21;29.4;40.72;;
78837;Laerm;72468;51.680;5.976;2024-02-14T10:15:40;33.01;29.34;41.57;;
78837;Laerm;72468;51.680;5.976;2024-02-14T10:19:40;32.8;30.51;43.58;;
78837;Laerm;72468;51.680;5.976;2024-02-14T10:23:40;32.87;30.47;38.64;;
78837;Laerm;72468;51.680;5.976;2024-02-14T10:27:40;34.48;30.06;48.69;;
78837;Laerm;72468;51.680;5.976;2024-02-14T10:31:40;33.48;30.56;45.7;;
78837;Laerm;72468;51.680;5.976;2024-02-14T10:35:40;33.17;30.21;47.2;;
78837;Laerm;72468;51.680;5.976;2024-02-14T10:39:41;32.84;30.65;43.3;;
78837;Laerm;72468;51.680;5.976;2024-02-14T10:43:40;34.77;29.78;52.38;;
78837;Laerm;72468;51.680;5.976;2024-02-14T10:47:42;33.43;30.05;44.88;;
78837;Laerm;72468;51.680;5.976;2024-02-14T10:51:40;32.99;30.12;42.84;;
78837;Laerm;72468;51.680;5.976;2024-02-14T10:55:40;32.95;29.39;40.81;;
78837;Laerm;72468;51.680;5.976;2024-02-14T10:59:41;32.59;29.78;43.39;;
78837;Laerm;72468;51.680;5.976;2024-02-14T11:03:40;32.72;29.83;38.28;;
78837;Laerm;72468;51.680;5.976;2024-02-14T11:07:45;33.06;30.51;44.68;;
78837;Laerm;72468;51.680;5.976;2024-02-14T11:11:40;33.13;28.61;40.06;;
78837;Laerm;72468;51.680;5.976;2024-02-14T11:15:40;33.47;29.24;41.88;;
78837;Laerm;72468;51.680;5.976;2024-02-14T11:19:40;33.61;29.94;45.73;;
78837;Laerm;72468;51.680;5.976;2024-02-14T11:23:40;34.17;29.43;45.88;;
78837;Laerm;72468;51.680;5.976;2024-02-14T11:27:43;33.42;30.61;42.87;;
78837;Laerm;72468;51.680;5.976;2024-02-14T11:31:40;33.26;30.87;42.27;;
78837;Laerm;72468;51.680;5.976;2024-02-14T11:35:40;32.86;30.51;44.02;;
78837;Laerm;72468;51.680;5.976;2024-02-14T11:39:40;33.41;29.44;43.88;;
78837;Laerm;72468;51.680;5.976;2024-02-14T11:43:50;32.54;30.96;40.5;;
78837;Laerm;72468;51.680;5.976;2024-02-14T11:47:40;32.84;30.69;43.21;;
78837;Laerm;72468;51.680;5.976;2024-02-14T11:51:40;34.08;29.71;45.42;;
78837;Laerm;72468;51.680;5.976;2024-02-14T11:55:41;32.82;30.96;42.8;;
78837;Laerm;72468;51.680;5.976;2024-02-14T11:59:40;33.65;29.85;46.29;;
78837;Laerm;72468;51.680;5.976;2024-02-14T12:03:40;33.55;29.8;46.92;;
78837;Laerm;72468;51.680;5.976;2024-02-14T12:07:40;33.74;30.06;45.62;;
78837;Laerm;72468;51.680;5.976;2024-02-14T12:11:40;33.04;31.13;45.14;;
78837;Laerm;72468;51.680;5.976;2024-02-14T12:15:40;33.99;30.32;45.07;;
78837;Laerm;72468;51.680;5.976;2024-02-14T12:19:40;33.03;30.56;42.5;;
78837;Laerm;72468;51.680;5.976;2024-02-14T12:23:40;33.68;30.5;46.26;;
78837;Laerm;72468;51.680;5.976;2024-02-14T12:27:40;36.28;30.17;52.14;;
78837;Laerm;72468;51.680;5.976;2024-02-14T12:31:40;33.66;29.75;43.46;;
78837;Laerm;72468;51.680;5.976;2024-02-14T12:35:41;33.38;28.31;41.71;;
78837;Laerm;72468;51.680;5.976;2024-02-14T12:39:40;32.86;29.53;38.99;;
78837;Laerm;72468;51.680;5.976;2024-02-14T12:43:40;33.23;29.92;42.61;;
78837;Laerm;72468;51.680;5.976;2024-02-14T12:47:40;32.82;29.76;38.52;;
78837;Laerm;72468;51.680;5.976;2024-02-14T12:51:40;32.8;30.6;44.76;;
78837;Laerm;72468;51.680;5.976;2024-02-14T12:55:40;32.77;30.42;39.64;;
78837;Laerm;72468;51.680;5.976;2024-02-14T12:59:40;33.24;30.08;41.63;;
78837;Laerm;72468;51.680;5.976;2024-02-14T13:03:40;33.03;30;41.86;;
78837;Laerm;72468;51.680;5.976;2024-02-14T13:07:41;33.91;30.02;48.43;;
78837;Laerm;72468;51.680;5.976;2024-02-14T13:11:40;32.81;30.02;40.73;;
78837;Laerm;72468;51.680;5.976;2024-02-14T13:15:40;33;29.86;42.43;;
78837;Laerm;72468;51.680;5.976;2024-02-14T13:19:40;34.76;29.52;46.38;;
78837;Laerm;72468;51.680;5.976;2024-02-14T13:23:40;33.24;30.43;42.17;;
78837;Laerm;72468;51.680;5.976;2024-02-14T13:27:40;32.56;30.01;39.59;;
78837;Laerm;72468;51.680;5.976;2024-02-14T13:31:40;33.16;30.2;40.7;;
78837;Laerm;72468;51.680;5.976;2024-02-14T13:35:40;33.13;29.51;42.58;;
78837;Laerm;72468;51.680;5.976;2024-02-14T13:39:40;32.8;29.99;41.64;;
78837;Laerm;72468;51.680;5.976;2024-02-14T13:43:40;32.86;30.34;43.46;;
78837;Laerm;72468;51.680;5.976;2024-02-14T13:47:40;33;30.27;42.44;;
78837;Laerm;72468;51.680;5.976;2024-02-14T13:51:40;33.41;28.94;45.63;;
78837;Laerm;72468;51.680;5.976;2024-02-14T13:55:41;32.84;29.6;43.29;;
78837;Laerm;72468;51.680;5.976;2024-02-14T13:59:40;33.08;29.75;44.74;;
78837;Laerm;72468;51.680;5.976;2024-02-14T14:03:40;32.85;29.82;41.85;;
78837;Laerm;72468;51.680;5.976;2024-02-14T14:07:40;33.06;30.19;42.64;;
78837;Laerm;72468;51.680;5.976;2024-02-14T14:11:40;32.79;29.19;43.62;;
78837;Laerm;72468;51.680;5.976;2024-02-14T14:15:40;33.56;29.74;45.51;;
78837;Laerm;72468;51.680;5.976;2024-02-14T14:19:40;33.56;29.71;43.59;;
78837;Laerm;72468;51.680;5.976;2024-02-14T14:23:40;33.18;30.11;47.08;;
78837;Laerm;72468;51.680;5.976;2024-02-14T14:27:40;32.84;30.16;42.76;;
78837;Laerm;72468;51.680;5.976;2024-02-14T14:31:40;33.1;30.55;44.83;;
78837;Laerm;72468;51.680;5.976;2024-02-14T14:35:40;32.7;30.58;41.83;;
78837;Laerm;72468;51.680;5.976;2024-02-14T14:39:40;32.95;30.4;44.5;;
78837;Laerm;72468;51.680;5.976;2024-02-14T14:43:40;33.15;30.68;46.71;;
78837;Laerm;72468;51.680;5.976;2024-02-14T14:47:41;32.76;30.23;43.42;;
78837;Laerm;72468;51.680;5.976;2024-02-14T14:51:40;33.18;29.94;46.03;;
78837;Laerm;72468;51.680;5.976;2024-02-14T14:55:49;33.24;29.44;42.71;;
78837;Laerm;72468;51.680;5.976;2024-02-14T14:59:41;33.56;29.92;45.87;;
78837;Laerm;72468;51.680;5.976;2024-02-14T15:03:40;33.63;29.56;46.76;;
78837;Laerm;72468;51.680;5.976;2024-02-14T15:07:40;33.06;29.26;45.53;;
78837;Laerm;72468;51.680;5.976;2024-02-14T15:11:40;33.1;29.82;42.86;;
78837;Laerm;72468;51.680;5.976;2024-02-14T15:15:40;33.63;29.87;48.83;;
78837;Laerm;72468;51.680;5.976;2024-02-14T15:19:40;32.56;30.24;41.51;;
78837;Laerm;72468;51.680;5.976;2024-02-14T15:23:40;32.94;29.48;38.48;;
78837;Laerm;72468;51.680;5.976;2024-02-14T15:27:40;32.96;29.94;42.61;;
78837;Laerm;72468;51.680;5.976;2024-02-14T15:31:42;32.48;29.66;39.17;;
78837;Laerm;72468;51.680;5.976;2024-02-14T15:35:40;32.85;30.5;41.53;;
78837;Laerm;72468;51.680;5.976;2024-02-14T15:39:40;32.72;30.31;46.35;;
78837;Laerm;72468;51.680;5.976;2024-02-14T15:43:40;32.64;29.26;42.19;;
78837;Laerm;72468;51.680;5.976;2024-02-14T15:47:41;32.58;29.77;43.45;;
78837;Laerm;72468;51.680;5.976;2024-02-14T15:51:40;32.64;29.61;45.23;;
78837;Laerm;72468;51.680;5.976;2024-02-14T15:55:40;32.62;30.04;38.98;;
78837;Laerm;72468;51.680;5.976;2024-02-14T15:59:40;32.28;30.92;34.3;;
78837;Laerm;72468;51.680;5.976;2024-02-14T16:03:40;33.33;30.47;53.42;;
78837;Laerm;72468;51.680;5.976;2024-02-14T16:07:40;33.02;30.66;46.47;;
78837;Laerm;72468;51.680;5.976;2024-02-14T16:11:40;34.73;29.83;52.57;;
78837;Laerm;72468;51.680;5.976;2024-02-14T16:15:40;33.02;30.36;44.41;;
78837;Laerm;72468;51.680;5.976;2024-02-14T16:19:40;32.71;30.34;49.84;;
78837;Laerm;72468;51.680;5.976;2024-02-14T16:23:40;32.71;31.18;47.38;;
78837;Laerm;72468;51.680;5.976;2024-02-14T16:27:40;33.56;30.83;44.7;;
78837;Laerm;72468;51.680;5.976;2024-02-14T16:31:40;32.91;29.98;47.62;;
78837;Laerm;72468;51.680;5.976;2024-02-14T16:35:40;33.06;30.21;47.42;;
78837;Laerm;72468;51.680;5.976;2024-02-14T16:39:40;33.42;30.86;52.94;;
78837;Laerm;72468;51.680;5.976;2024-02-14T16:43:40;33.14;30.62;46.26;;
78837;Laerm;72468;51.680;5.976;2024-02-14T16:47:40;33.86;29.98;48.8;;
78837;Laerm;72468;51.680;5.976;2024-02-14T16:51:40;34.49;30.79;48.47;;
78837;Laerm;72468;51.680;5.976;2024-02-14T16:55:41;32.93;31.16;47.17;;
78837;Laerm;72468;51.680;5.976;2024-02-14T16:59:41;33.41;30.8;44.68;;
78837;Laerm;72468;51.680;5.976;2024-02-14T17:03:40;32.93;30.19;48.63;;
78837;Laerm;72468;51.680;5.976;2024-02-14T17:07:40;33.09;30.28;48.89;;
78837;Laerm;72468;51.680;5.976;2024-02-14T17:11:40;33;30.37;43.55;;
78837;Laerm;72468;51.680;5.976;2024-02-14T17:15:41;32.65;31.14;41.02;;
78837;Laerm;72468;51.680;5.976;2024-02-14T17:19:40;32.42;30.91;41.39;;
78837;Laerm;72468;51.680;5.976;2024-02-14T17:23:40;32.29;29.97;40.29;;
78837;Laerm;72468;51.680;5.976;2024-02-14T17:27:40;32.3;30.64;42.37;;
78837;Laerm;72468;51.680;5.976;2024-02-14T17:31:40;32.18;30.04;35.44;;
78837;Laerm;72468;51.680;5.976;2024-02-14T17:35:40;32.18;30.53;37.02;;
78837;Laerm;72468;51.680;5.976;2024-02-14T17:39:40;32.16;30.8;35.62;;
78837;Laerm;72468;51.680;5.976;2024-02-14T17:43:40;32.32;30.63;42.47;;
78837;Laerm;72468;51.680;5.976;2024-02-14T17:47:41;32.14;29.78;38.12;;
78837;Laerm;72468;51.680;5.976;2024-02-14T17:51:40;32.13;31.09;34.82;;
78837;Laerm;72468;51.680;5.976;2024-02-14T17:55:40;32.12;30.61;35.98;;
78837;Laerm;72468;51.680;5.976;2024-02-14T17:59:40;32.28;29.7;43.21;;
78837;Laerm;72468;51.680;5.976;2024-02-14T18:03:40;32.18;31.06;40;;
78837;Laerm;72468;51.680;5.976;2024-02-14T18:07:40;32.19;30.19;40.37;;
78837;Laerm;72468;51.680;5.976;2024-02-14T18:11:40;32.41;30.3;45.79;;
78837;Laerm;72468;51.680;5.976;2024-02-14T18:15:40;33.16;29.67;43.77;;
78837;Laerm;72468;51.680;5.976;2024-02-14T18:19:40;32.23;31.15;40.93;;
78837;Laerm;72468;51.680;5.976;2024-02-14T18:23:40;32.16;30.9;34.87;;
78837;Laerm;72468;51.680;5.976;2024-02-14T18:27:40;34.45;30.48;50.21;;
78837;Laerm;72468;51.680;5.976;2024-02-14T18:31:40;32.19;31.25;40.42;;
78837;Laerm;72468;51.680;5.976;2024-02-14T18:35:40;33.88;30.61;51.41;;
78837;Laerm;72468;51.680;5.976;2024-02-14T18:39:40;32.26;31.06;36.09;;
78837;Laerm;72468;51.680;5.976;2024-02-14T18:43:40;32.2;30.64;35.22;;
78837;Laerm;72468;51.680;5.976;2024-02-14T18:47:40;33.74;29.81;53.28;;
78837;Laerm;72468;51.680;5.976;2024-02-14T18:51:40;32.61;30.31;47.31;;
78837;Laerm;72468;51.680;5.976;2024-02-14T18:55:40;32.22;30.4;35.86;;
78837;Laerm;72468;51.680;5.976;2024-02-14T18:59:41;32.14;31.26;34.7;;
78837;Laerm;72468;51.680;5.976;2024-02-14T19:03:40;32.29;31.29;38.08;;
78837;Laerm;72468;51.680;5.976;2024-02-14T19:07:40;32.17;31.17;33.43;;
78837;Laerm;72468;51.680;5.976;2024-02-14T19:11:40;32.22;30.29;35.6;;
78837;Laerm;72468;51.680;5.976;2024-02-14T19:15:40;32.17;30.79;36.35;;
78837;Laerm;72468;51.680;5.976;2024-02-14T19:19:40;32.17;30.52;33.75;;
78837;Laerm;72468;51.680;5.976;2024-02-14T19:27:40;32.13;30.84;44.16;;
78837;Laerm;72468;51.680;5.976;2024-02-14T19:31:40;32.12;30.89;36.71;;
78837;Laerm;72468;51.680;5.976;2024-02-14T19:35:40;32.2;31.11;35.93;;
78837;Laerm;72468;51.680;5.976;2024-02-14T19:39:40;32.2;30.29;37.29;;
78837;Laerm;72468;51.680;5.976;2024-02-14T19:43:41;32.1;30.9;33.98;;
78837;Laerm;72468;51.680;5.976;2024-02-14T19:47:40;32.12;31.02;35.54;;
78837;Laerm;72468;51.680;5.976;2024-02-14T19:51:40;32.09;31.14;34.25;;
78837;Laerm;72468;51.680;5.976;2024-02-14T19:55:40;32.16;30.24;36.14;;
78837;Laerm;72468;51.680;5.976;2024-02-14T19:59:40;32.17;30.85;37.62;;
78837;Laerm;72468;51.680;5.976;2024-02-14T20:03:40;32.16;30.89;35.72;;
78837;Laerm;72468;51.680;5.976;2024-02-14T20:07:40;32.84;31.2;45.68;;
78837;Laerm;72468;51.680;5.976;2024-02-14T20:11:40;32.19;30.97;36.96;;
78837;Laerm;72468;51.680;5.976;2024-02-14T20:15:40;32.12;30.89;33.15;;
78837;Laerm;72468;51.680;5.976;2024-02-14T20:19:40;32.11;31.24;33.02;;
78837;Laerm;72468;51.680;5.976;2024-02-14T20:23:40;32.13;31.02;34.85;;
78837;Laerm;72468;51.680;5.976;2024-02-14T20:27:40;32.12;31.4;33.47;;
78837;Laerm;72468;51.680;5.976;2024-02-14T20:31:40;32.53;30.69;43.42;;
78837;Laerm;72468;51.680;5.976;2024-02-14T20:35:40;32.28;29.49;39.12;;
78837;Laerm;72468;51.680;5.976;2024-02-14T20:39:40;33.01;31.03;44.43;;
78837;Laerm;72468;51.680;5.976;2024-02-14T20:43:40;32.15;30.52;34.17;;
78837;Laerm;72468;51.680;5.976;2024-02-14T20:47:40;32.1;31.2;33.17;;
78837;Laerm;72468;51.680;5.976;2024-02-14T20:51:40;32.14;31.14;34.99;;
78837;Laerm;72468;51.680;5.976;2024-02-14T20:55:43;32.18;30.98;36.69;;
78837;Laerm;72468;51.680;5.976;2024-02-14T20:59:40;32.1;30.79;33.23;;
78837;Laerm;72468;51.680;5.976;2024-02-14T21:03:40;32.35;30.01;37.84;;
78837;Laerm;72468;51.680;5.976;2024-02-14T21:07:40;32.21;30.47;34.77;;
78837;Laerm;72468;51.680;5.976;2024-02-14T21:11:40;32.11;31.2;34.23;;
78837;Laerm;72468;51.680;5.976;2024-02-14T21:15:40;32.16;31.14;35.68;;
78837;Laerm;72468;51.680;5.976;2024-02-14T21:19:40;32.1;31.18;35.4;;
78837;Laerm;72468;51.680;5.976;2024-02-14T21:23:40;32.02;30.24;34.56;;
78837;Laerm;72468;51.680;5.976;2024-02-14T21:27:40;32.03;31.25;33.64;;
78837;Laerm;72468;51.680;5.976;2024-02-14T21:31:40;32;30.85;32.98;;
78837;Laerm;72468;51.680;5.976;2024-02-14T21:35:40;32.05;31.06;34.23;;
78837;Laerm;72468;51.680;5.976;2024-02-14T21:39:40;32.03;31.19;34.01;;
78837;Laerm;72468;51.680;5.976;2024-02-14T21:43:40;32.02;31.07;32.67;;
78837;Laerm;72468;51.680;5.976;2024-02-14T21:47:40;32.01;30.64;34.31;;
78837;Laerm;72468;51.680;5.976;2024-02-14T21:51:40;32.1;31.02;38.84;;
78837;Laerm;72468;51.680;5.976;2024-02-14T21:55:40;32;31.3;32.69;;
78837;Laerm;72468;51.680;5.976;2024-02-14T21:59:43;32.01;31.34;32.67;;
78837;Laerm;72468;51.680;5.976;2024-02-14T22:03:40;32.03;31.26;33.36;;
78837;Laerm;72468;51.680;5.976;2024-02-14T22:07:40;32.01;30.66;34.31;;
78837;Laerm;72468;51.680;5.976;2024-02-14T22:11:40;32.01;31.22;32.78;;
78837;Laerm;72468;51.680;5.976;2024-02-14T22:15:40;32.02;31.34;33.01;;
78837;Laerm;72468;51.680;5.976;2024-02-14T22:19:40;32.02;31.39;32.74;;
78837;Laerm;72468;51.680;5.976;2024-02-14T22:23:40;32.01;31.26;32.84;;
78837;Laerm;72468;51.680;5.976;2024-02-14T22:27:40;32.05;31.19;34.43;;
78837;Laerm;72468;51.680;5.976;2024-02-14T22:31:40;32.02;31.05;33.07;;
78837;Laerm;72468;51.680;5.976;2024-02-14T22:35:40;32.05;30.93;35.36;;